sensor_id;sensor_type;location;lat;lon;timestamp;temperature;humidity
70830;SHT30;58451;51.550;7.208;2022-11-20T07:07:18;-1.79;80.53
70830;SHT30;58451;51.550;7.208;2022-11-20T07:08:51;-1.77;80.40
70830;SHT30;58451;51.550;7.208;2022-11-20T07:10:26;-1.76;80.30
70830;SHT30;58451;51.550;7.208;2022-11-20T07:11:58;-1.76;80.28
70830;SHT30;58451;51.550;7.208;2022-11-20T07:13:30;-1.72;80.18
70830;SHT30;58451;51.550;7.208;2022-11-20T07:15:03;-1.70;80.12
70830;SHT30;58451;51.550;7.208;2022-11-20T07:16:36;-1.71;80.23
70830;SHT30;58451;51.550;7.208;2022-11-20T07:18:08;-1.68;80.30
70830;SHT30;58451;51.550;7.208;2022-11-20T07:19:40;-1.65;80.22
70830;SHT30;58451;51.550;7.208;2022-11-20T07:21:12;-1.60;80.30
70830;SHT30;58451;51.550;7.208;2022-11-20T07:22:44;-1.57;80.48
70830;SHT30;58451;51.550;7.208;2022-11-20T07:24:16;-1.52;80.53
70830;SHT30;58451;51.550;7.208;2022-11-20T07:25:47;-1.46;80.38
70830;SHT30;58451;51.550;7.208;2022-11-20T07:27:19;-1.42;80.35
70830;SHT30;58451;51.550;7.208;2022-11-20T07:28:52;-1.39;80.33
70830;SHT30;58451;51.550;7.208;2022-11-20T07:30:24;-1.35;80.30
70830;SHT30;58451;51.550;7.208;2022-11-20T07:31:58;-1.27;80.23
70830;SHT30;58451;51.550;7.208;2022-11-20T07:33:30;-1.21;80.20
70830;SHT30;58451;51.550;7.208;2022-11-20T07:35:02;-1.15;80.12
70830;SHT30;58451;51.550;7.208;2022-11-20T07:36:34;-1.10;80.00
70830;SHT30;58451;51.550;7.208;2022-11-20T07:38:06;-1.03;79.90
70830;SHT30;58451;51.550;7.208;2022-11-20T07:39:39;-1.00;79.75
70830;SHT30;58451;51.550;7.208;2022-11-20T07:41:11;-0.97;79.70
70830;SHT30;58451;51.550;7.208;2022-11-20T07:42:47;-0.91;79.70
70830;SHT30;58451;51.550;7.208;2022-11-20T07:44:21;-0.88;79.70
70830;SHT30;58451;51.550;7.208;2022-11-20T07:45:56;-0.82;79.77
70830;SHT30;58451;51.550;7.208;2022-11-20T07:47:34;-0.75;79.82
70830;SHT30;58451;51.550;7.208;2022-11-20T07:49:07;-0.70;79.90
70830;SHT30;58451;51.550;7.208;2022-11-20T07:50:39;-0.64;79.93
70830;SHT30;58451;51.550;7.208;2022-11-20T07:52:11;-0.61;79.83
70830;SHT30;58451;51.550;7.208;2022-11-20T07:53:43;-0.60;79.73
70830;SHT30;58451;51.550;7.208;2022-11-20T07:55:15;-0.57;79.67
70830;SHT30;58451;51.550;7.208;2022-11-20T07:56:50;-0.56;79.55
70830;SHT30;58451;51.550;7.208;2022-11-20T07:58:21;-0.52;79.50
70830;SHT30;58451;51.550;7.208;2022-11-20T07:59:53;-0.48;79.40
70830;SHT30;58451;51.550;7.208;2022-11-20T08:01:25;-0.45;79.32
70830;SHT30;58451;51.550;7.208;2022-11-20T08:02:57;-0.43;79.18
70830;SHT30;58451;51.550;7.208;2022-11-20T08:04:29;-0.41;79.03
70830;SHT30;58451;51.550;7.208;2022-11-20T08:06:01;-0.39;78.97
70830;SHT30;58451;51.550;7.208;2022-11-20T08:07:39;-0.37;78.90
70830;SHT30;58451;51.550;7.208;2022-11-20T08:09:13;-0.33;78.77
70830;SHT30;58451;51.550;7.208;2022-11-20T08:10:45;-0.29;78.72
70830;SHT30;58451;51.550;7.208;2022-11-20T08:12:18;-0.25;78.70
70830;SHT30;58451;51.550;7.208;2022-11-20T08:14:10;-0.20;78.60
70830;SHT30;58451;51.550;7.208;2022-11-20T08:15:48;-0.16;78.57
70830;SHT30;58451;51.550;7.208;2022-11-20T08:17:24;-0.11;78.52
70830;SHT30;58451;51.550;7.208;2022-11-20T08:18:56;-0.04;78.60
70830;SHT30;58451;51.550;7.208;2022-11-20T08:20:27;0.01;78.63
70830;SHT30;58451;51.550;7.208;2022-11-20T08:21:59;0.07;78.52
70830;SHT30;58451;51.550;7.208;2022-11-20T08:23:31;0.10;78.23
70830;SHT30;58451;51.550;7.208;2022-11-20T08:25:03;0.15;78.12
70830;SHT30;58451;51.550;7.208;2022-11-20T08:26:36;0.19;78.08
70830;SHT30;58451;51.550;7.208;2022-11-20T08:28:10;0.26;78.13
70830;SHT30;58451;51.550;7.208;2022-11-20T08:29:50;0.34;78.15
70830;SHT30;58451;51.550;7.208;2022-11-20T08:31:25;0.41;78.08
70830;SHT30;58451;51.550;7.208;2022-11-20T08:33:03;0.50;78.00
70830;SHT30;58451;51.550;7.208;2022-11-20T08:34:39;0.56;77.90
70830;SHT30;58451;51.550;7.208;2022-11-20T08:36:11;0.63;77.88
70830;SHT30;58451;51.550;7.208;2022-11-20T08:37:45;0.69;77.70
70830;SHT30;58451;51.550;7.208;2022-11-20T08:39:18;0.74;77.60
70830;SHT30;58451;51.550;7.208;2022-11-20T08:40:58;0.79;77.53
70830;SHT30;58451;51.550;7.208;2022-11-20T08:42:51;0.87;77.50
70830;SHT30;58451;51.550;7.208;2022-11-20T08:44:22;0.91;77.50
70830;SHT30;58451;51.550;7.208;2022-11-20T08:45:56;0.96;77.58
70830;SHT30;58451;51.550;7.208;2022-11-20T08:47:28;1.01;77.55
70830;SHT30;58451;51.550;7.208;2022-11-20T08:49:00;1.05;77.50
70830;SHT30;58451;51.550;7.208;2022-11-20T08:50:32;1.09;77.42
70830;SHT30;58451;51.550;7.208;2022-11-20T08:52:04;1.14;77.33
70830;SHT30;58451;51.550;7.208;2022-11-20T08:53:37;1.20;77.32
70830;SHT30;58451;51.550;7.208;2022-11-20T08:55:10;1.26;77.20
70830;SHT30;58451;51.550;7.208;2022-11-20T08:56:43;1.34;77.18
70830;SHT30;58451;51.550;7.208;2022-11-20T08:58:14;1.44;77.17
70830;SHT30;58451;51.550;7.208;2022-11-20T08:59:46;1.54;77.03
70830;SHT30;58451;51.550;7.208;2022-11-20T09:01:36;1.63;76.97
70830;SHT30;58451;51.550;7.208;2022-11-20T09:03:08;1.71;76.83
70830;SHT30;58451;51.550;7.208;2022-11-20T09:04:40;1.79;76.72
70830;SHT30;58451;51.550;7.208;2022-11-20T09:06:12;1.88;76.53
70830;SHT30;58451;51.550;7.208;2022-11-20T09:07:45;1.95;76.48
70830;SHT30;58451;51.550;7.208;2022-11-20T09:09:17;2.02;76.42
70830;SHT30;58451;51.550;7.208;2022-11-20T09:10:53;2.09;76.30
70830;SHT30;58451;51.550;7.208;2022-11-20T09:12:27;2.16;76.33
70830;SHT30;58451;51.550;7.208;2022-11-20T09:13:59;2.26;76.28
70830;SHT30;58451;51.550;7.208;2022-11-20T09:15:31;2.36;76.27
70830;SHT30;58451;51.550;7.208;2022-11-20T09:17:04;2.46;76.10
70830;SHT30;58451;51.550;7.208;2022-11-20T09:18:36;2.51;75.98
70830;SHT30;58451;51.550;7.208;2022-11-20T09:20:08;2.55;75.93
70830;SHT30;58451;51.550;7.208;2022-11-20T09:21:41;2.62;75.90
70830;SHT30;58451;51.550;7.208;2022-11-20T09:23:12;2.71;75.90
70830;SHT30;58451;51.550;7.208;2022-11-20T09:24:44;2.76;75.72
70830;SHT30;58451;51.550;7.208;2022-11-20T09:26:16;2.81;75.60
70830;SHT30;58451;51.550;7.208;2022-11-20T09:27:48;2.88;75.45
70830;SHT30;58451;51.550;7.208;2022-11-20T09:29:26;2.94;75.43
70830;SHT30;58451;51.550;7.208;2022-11-20T09:30:58;3.03;75.47
70830;SHT30;58451;51.550;7.208;2022-11-20T09:32:31;3.16;75.45
70830;SHT30;58451;51.550;7.208;2022-11-20T09:34:02;3.26;75.28
70830;SHT30;58451;51.550;7.208;2022-11-20T09:35:34;3.40;75.25
70830;SHT30;58451;51.550;7.208;2022-11-20T09:37:06;3.51;75.07
70830;SHT30;58451;51.550;7.208;2022-11-20T09:38:38;3.62;74.88
70830;SHT30;58451;51.550;7.208;2022-11-20T09:40:44;3.70;74.82
70830;SHT30;58451;51.550;7.208;2022-11-20T09:54:47;4.18;74.05
70830;SHT30;58451;51.550;7.208;2022-11-20T09:56:20;4.18;73.67
70830;SHT30;58451;51.550;7.208;2022-11-20T09:57:53;4.18;73.60
70830;SHT30;58451;51.550;7.208;2022-11-20T09:59:36;4.24;73.45
70830;SHT30;58451;51.550;7.208;2022-11-20T10:01:16;4.30;73.42
70830;SHT30;58451;51.550;7.208;2022-11-20T10:02:54;4.34;73.45
70830;SHT30;58451;51.550;7.208;2022-11-20T10:04:37;4.39;73.50
70830;SHT30;58451;51.550;7.208;2022-11-20T10:06:18;4.44;73.33
70830;SHT30;58451;51.550;7.208;2022-11-20T10:10:44;4.53;73.38
70830;SHT30;58451;51.550;7.208;2022-11-20T10:14:46;4.72;73.20
70830;SHT30;58451;51.550;7.208;2022-11-20T10:17:00;4.78;72.80
70830;SHT30;58451;51.550;7.208;2022-11-20T10:18:51;4.86;72.42
70830;SHT30;58451;51.550;7.208;2022-11-20T10:26:16;5.11;72.10
70830;SHT30;58451;51.550;7.208;2022-11-20T10:29:39;5.22;72.33
70830;SHT30;58451;51.550;7.208;2022-11-20T10:31:25;5.30;72.33
70830;SHT30;58451;51.550;7.208;2022-11-20T10:36:38;5.66;69.95
70830;SHT30;58451;51.550;7.208;2022-11-20T10:38:25;5.71;69.07
70830;SHT30;58451;51.550;7.208;2022-11-20T10:40:35;5.75;69.43
70830;SHT30;58451;51.550;7.208;2022-11-20T10:43:12;5.82;70.10
70830;SHT30;58451;51.550;7.208;2022-11-20T10:44:52;5.87;70.28
70830;SHT30;58451;51.550;7.208;2022-11-20T10:46:44;5.95;69.32
70830;SHT30;58451;51.550;7.208;2022-11-20T10:48:23;6.03;70.10
70830;SHT30;58451;51.550;7.208;2022-11-20T10:50:01;6.11;70.58
70830;SHT30;58451;51.550;7.208;2022-11-20T10:51:37;6.13;70.90
70830;SHT30;58451;51.550;7.208;2022-11-20T10:55:33;6.19;70.70
70830;SHT30;58451;51.550;7.208;2022-11-20T10:59:45;6.28;70.58
70830;SHT30;58451;51.550;7.208;2022-11-20T11:01:42;6.30;70.02
70830;SHT30;58451;51.550;7.208;2022-11-20T11:03:20;6.31;70.13
70830;SHT30;58451;51.550;7.208;2022-11-20T11:05:02;6.34;69.20
70830;SHT30;58451;51.550;7.208;2022-11-20T11:06:47;6.36;69.17
70830;SHT30;58451;51.550;7.208;2022-11-20T11:08:21;6.42;69.62
70830;SHT30;58451;51.550;7.208;2022-11-20T11:09:55;6.47;69.88
70830;SHT30;58451;51.550;7.208;2022-11-20T11:11:32;6.48;69.43
70830;SHT30;58451;51.550;7.208;2022-11-20T11:13:05;6.51;69.78
70830;SHT30;58451;51.550;7.208;2022-11-20T11:14:50;6.58;69.90
70830;SHT30;58451;51.550;7.208;2022-11-20T11:16:27;6.62;69.70
70830;SHT30;58451;51.550;7.208;2022-11-20T11:17:59;6.60;68.70
70830;SHT30;58451;51.550;7.208;2022-11-20T11:19:30;6.58;67.02
70830;SHT30;58451;51.550;7.208;2022-11-20T11:21:03;6.57;67.68
70830;SHT30;58451;51.550;7.208;2022-11-20T11:22:44;6.57;67.53
70830;SHT30;58451;51.550;7.208;2022-11-20T11:24:35;6.58;68.30
70830;SHT30;58451;51.550;7.208;2022-11-20T11:26:20;6.63;68.77
70830;SHT30;58451;51.550;7.208;2022-11-20T11:27:55;6.68;69.00
70830;SHT30;58451;51.550;7.208;2022-11-20T11:29:33;6.71;68.90
70830;SHT30;58451;51.550;7.208;2022-11-20T11:31:04;6.74;68.25
70830;SHT30;58451;51.550;7.208;2022-11-20T11:32:36;6.77;67.83
70830;SHT30;58451;51.550;7.208;2022-11-20T11:34:12;6.82;67.38
70830;SHT30;58451;51.550;7.208;2022-11-20T11:35:52;6.84;67.57
70830;SHT30;58451;51.550;7.208;2022-11-20T11:37:34;6.86;67.25
70830;SHT30;58451;51.550;7.208;2022-11-20T11:39:13;6.89;67.83
70830;SHT30;58451;51.550;7.208;2022-11-20T11:40:49;6.93;68.25
70830;SHT30;58451;51.550;7.208;2022-11-20T11:42:24;6.99;68.03
70830;SHT30;58451;51.550;7.208;2022-11-20T11:43:57;7.03;66.33
70830;SHT30;58451;51.550;7.208;2022-11-20T11:46:43;7.05;67.08
70830;SHT30;58451;51.550;7.208;2022-11-20T11:48:08;7.13;67.75
70830;SHT30;58451;51.550;7.208;2022-11-20T11:49:41;7.19;66.68
70830;SHT30;58451;51.550;7.208;2022-11-20T11:53:48;7.32;67.15
70830;SHT30;58451;51.550;7.208;2022-11-20T11:55:26;7.37;66.57
70830;SHT30;58451;51.550;7.208;2022-11-20T12:00:09;7.52;64.97
70830;SHT30;58451;51.550;7.208;2022-11-20T12:03:36;7.72;67.10
70830;SHT30;58451;51.550;7.208;2022-11-20T12:07:00;7.73;66.23
70830;SHT30;58451;51.550;7.208;2022-11-20T12:09:05;7.67;65.85
70830;SHT30;58451;51.550;7.208;2022-11-20T12:12:42;7.43;65.85
70830;SHT30;58451;51.550;7.208;2022-11-20T12:14:37;7.30;65.05
70830;SHT30;58451;51.550;7.208;2022-11-20T12:16:17;7.24;65.73
70830;SHT30;58451;51.550;7.208;2022-11-20T12:17:53;7.20;65.67
70830;SHT30;58451;51.550;7.208;2022-11-20T12:19:26;7.15;65.22
70830;SHT30;58451;51.550;7.208;2022-11-20T12:21:12;7.18;65.68
70830;SHT30;58451;51.550;7.208;2022-11-20T12:27:06;7.26;65.93
70830;SHT30;58451;51.550;7.208;2022-11-20T12:29:13;7.29;66.38
70830;SHT30;58451;51.550;7.208;2022-11-20T12:31:21;7.26;66.27
70830;SHT30;58451;51.550;7.208;2022-11-20T12:40:22;7.03;65.83
70830;SHT30;58451;51.550;7.208;2022-11-20T12:46:44;6.89;66.48
70830;SHT30;58451;51.550;7.208;2022-11-20T12:48:41;6.80;66.27
70830;SHT30;58451;51.550;7.208;2022-11-20T12:50:28;6.72;66.55
70830;SHT30;58451;51.550;7.208;2022-11-20T12:52:47;6.66;66.77
70830;SHT30;58451;51.550;7.208;2022-11-20T13:00:16;6.47;66.97
70830;SHT30;58451;51.550;7.208;2022-11-20T13:50:14;6.09;68.07
70830;SHT30;58451;51.550;7.208;2022-11-20T13:51:47;6.11;68.07
70830;SHT30;58451;51.550;7.208;2022-11-20T13:57:46;6.07;67.95
70830;SHT30;58451;51.550;7.208;2022-11-20T14:01:52;6.01;68.12
70830;SHT30;58451;51.550;7.208;2022-11-20T14:03:25;5.96;68.07
70830;SHT30;58451;51.550;7.208;2022-11-20T14:05:24;5.93;67.87
70830;SHT30;58451;51.550;7.208;2022-11-20T14:06:56;5.93;68.07
70830;SHT30;58451;51.550;7.208;2022-11-20T14:10:21;5.92;68.07
70830;SHT30;58451;51.550;7.208;2022-11-20T14:12:03;5.91;68.12
70830;SHT30;58451;51.550;7.208;2022-11-20T14:14:26;5.89;68.15
70830;SHT30;58451;51.550;7.208;2022-11-20T14:15:57;5.90;68.12
70830;SHT30;58451;51.550;7.208;2022-11-20T14:17:32;5.88;68.23
70830;SHT30;58451;51.550;7.208;2022-11-20T14:19:29;5.88;68.30
70830;SHT30;58451;51.550;7.208;2022-11-20T14:21:02;5.86;68.12
70830;SHT30;58451;51.550;7.208;2022-11-20T14:22:35;5.84;68.38
70830;SHT30;58451;51.550;7.208;2022-11-20T14:24:10;5.83;68.50
70830;SHT30;58451;51.550;7.208;2022-11-20T14:25:44;5.82;68.60
70830;SHT30;58451;51.550;7.208;2022-11-20T14:27:18;5.81;68.58
70830;SHT30;58451;51.550;7.208;2022-11-20T14:28:52;5.80;68.60
70830;SHT30;58451;51.550;7.208;2022-11-20T14:30:29;5.79;68.70
70830;SHT30;58451;51.550;7.208;2022-11-20T14:32:18;5.78;68.73
70830;SHT30;58451;51.550;7.208;2022-11-20T14:33:57;5.75;68.95
70830;SHT30;58451;51.550;7.208;2022-11-20T14:35:30;5.72;69.00
70830;SHT30;58451;51.550;7.208;2022-11-20T14:37:25;5.72;69.03
70830;SHT30;58451;51.550;7.208;2022-11-20T14:39:08;5.72;69.18
70830;SHT30;58451;51.550;7.208;2022-11-20T14:40:53;5.71;69.27
70830;SHT30;58451;51.550;7.208;2022-11-20T14:42:26;5.70;69.28
70830;SHT30;58451;51.550;7.208;2022-11-20T14:44:02;5.70;69.33
70830;SHT30;58451;51.550;7.208;2022-11-20T14:45:37;5.69;69.40
70830;SHT30;58451;51.550;7.208;2022-11-20T14:47:13;5.68;69.55
70830;SHT30;58451;51.550;7.208;2022-11-20T14:48:56;5.66;69.60
70830;SHT30;58451;51.550;7.208;2022-11-20T14:50:37;5.64;69.62
70830;SHT30;58451;51.550;7.208;2022-11-20T14:52:14;5.64;69.73
70830;SHT30;58451;51.550;7.208;2022-11-20T14:53:52;5.61;69.93
70830;SHT30;58451;51.550;7.208;2022-11-20T14:55:25;5.59;69.92
70830;SHT30;58451;51.550;7.208;2022-11-20T14:57:18;5.55;70.08
70830;SHT30;58451;51.550;7.208;2022-11-20T14:59:02;5.52;70.38
70830;SHT30;58451;51.550;7.208;2022-11-20T15:00:34;5.49;70.43
70830;SHT30;58451;51.550;7.208;2022-11-20T15:02:12;5.48;70.62
70830;SHT30;58451;51.550;7.208;2022-11-20T15:03:56;5.46;70.70
70830;SHT30;58451;51.550;7.208;2022-11-20T15:05:45;5.43;70.55
70830;SHT30;58451;51.550;7.208;2022-11-20T15:07:29;5.39;70.67
70830;SHT30;58451;51.550;7.208;2022-11-20T15:09:12;5.37;70.88
70830;SHT30;58451;51.550;7.208;2022-11-20T15:10:48;5.36;70.85
70830;SHT30;58451;51.550;7.208;2022-11-20T15:12:24;5.33;70.88
70830;SHT30;58451;51.550;7.208;2022-11-20T15:14:03;5.31;71.27
70830;SHT30;58451;51.550;7.208;2022-11-20T15:15:48;5.28;71.35
70830;SHT30;58451;51.550;7.208;2022-11-20T15:17:25;5.25;71.70
70830;SHT30;58451;51.550;7.208;2022-11-20T15:18:56;5.22;71.62
70830;SHT30;58451;51.550;7.208;2022-11-20T15:20:32;5.20;71.85
70830;SHT30;58451;51.550;7.208;2022-11-20T15:22:29;5.17;72.20
70830;SHT30;58451;51.550;7.208;2022-11-20T15:24:05;5.16;71.88
70830;SHT30;58451;51.550;7.208;2022-11-20T15:25:44;5.15;71.77
70830;SHT30;58451;51.550;7.208;2022-11-20T15:27:21;5.13;71.82
70830;SHT30;58451;51.550;7.208;2022-11-20T15:28:53;5.14;71.97
70830;SHT30;58451;51.550;7.208;2022-11-20T15:30:25;5.15;72.18
70830;SHT30;58451;51.550;7.208;2022-11-20T15:31:58;5.17;72.43
70830;SHT30;58451;51.550;7.208;2022-11-20T15:33:31;5.17;72.62
70830;SHT30;58451;51.550;7.208;2022-11-20T15:35:06;5.21;73.03
70830;SHT30;58451;51.550;7.208;2022-11-20T15:36:41;5.25;73.50
70830;SHT30;58451;51.550;7.208;2022-11-20T15:38:17;5.26;73.55
70830;SHT30;58451;51.550;7.208;2022-11-20T15:39:56;5.22;73.38
70830;SHT30;58451;51.550;7.208;2022-11-20T15:41:29;5.19;73.32
70830;SHT30;58451;51.550;7.208;2022-11-20T15:43:04;5.14;73.18
70830;SHT30;58451;51.550;7.208;2022-11-20T15:44:49;5.10;73.13
70830;SHT30;58451;51.550;7.208;2022-11-20T15:46:23;5.08;73.13
70830;SHT30;58451;51.550;7.208;2022-11-20T15:48:02;5.06;73.20
70830;SHT30;58451;51.550;7.208;2022-11-20T15:49:36;5.04;73.25
70830;SHT30;58451;51.550;7.208;2022-11-20T15:53:24;5.04;73.50
70830;SHT30;58451;51.550;7.208;2022-11-20T15:54:56;5.04;73.78
70830;SHT30;58451;51.550;7.208;2022-11-20T15:56:28;5.08;73.98
70830;SHT30;58451;51.550;7.208;2022-11-20T15:58:02;5.10;74.10
70830;SHT30;58451;51.550;7.208;2022-11-20T15:59:37;5.11;74.05
70830;SHT30;58451;51.550;7.208;2022-11-20T16:01:13;5.10;74.02
70830;SHT30;58451;51.550;7.208;2022-11-20T16:02:49;5.08;73.92
70830;SHT30;58451;51.550;7.208;2022-11-20T16:04:23;5.07;73.87
70830;SHT30;58451;51.550;7.208;2022-11-20T16:06:04;5.02;73.80
70830;SHT30;58451;51.550;7.208;2022-11-20T16:07:48;5.00;73.78
70830;SHT30;58451;51.550;7.208;2022-11-20T16:09:23;5.00;73.92
70830;SHT30;58451;51.550;7.208;2022-11-20T16:11:04;4.99;74.25
70830;SHT30;58451;51.550;7.208;2022-11-20T16:12:49;4.97;74.43
70830;SHT30;58451;51.550;7.208;2022-11-20T16:14:42;4.97;74.68
70830;SHT30;58451;51.550;7.208;2022-11-20T16:16:35;4.95;74.70
70830;SHT30;58451;51.550;7.208;2022-11-20T16:18:10;4.97;74.72
70830;SHT30;58451;51.550;7.208;2022-11-20T16:19:48;4.97;74.65
70830;SHT30;58451;51.550;7.208;2022-11-20T16:21:20;4.95;74.60
70830;SHT30;58451;51.550;7.208;2022-11-20T16:22:52;4.93;74.62
70830;SHT30;58451;51.550;7.208;2022-11-20T16:24:23;4.93;74.62
70830;SHT30;58451;51.550;7.208;2022-11-20T16:25:56;4.91;74.50
70830;SHT30;58451;51.550;7.208;2022-11-20T16:27:28;4.86;74.53
70830;SHT30;58451;51.550;7.208;2022-11-20T16:29:00;4.86;74.60
70830;SHT30;58451;51.550;7.208;2022-11-20T16:30:33;4.86;74.68
70830;SHT30;58451;51.550;7.208;2022-11-20T16:32:06;4.84;74.78
70830;SHT30;58451;51.550;7.208;2022-11-20T16:33:38;4.82;74.85
70830;SHT30;58451;51.550;7.208;2022-11-20T16:35:11;4.81;74.87
70830;SHT30;58451;51.550;7.208;2022-11-20T16:36:43;4.82;74.88
70830;SHT30;58451;51.550;7.208;2022-11-20T16:38:16;4.78;74.98
70830;SHT30;58451;51.550;7.208;2022-11-20T16:39:48;4.76;75.10
70830;SHT30;58451;51.550;7.208;2022-11-20T16:41:19;4.78;75.53
70830;SHT30;58451;51.550;7.208;2022-11-20T16:42:53;4.78;75.90
70830;SHT30;58451;51.550;7.208;2022-11-20T16:44:25;4.77;75.80
70830;SHT30;58451;51.550;7.208;2022-11-20T16:45:57;4.76;75.82
70830;SHT30;58451;51.550;7.208;2022-11-20T16:47:32;4.78;76.03
70830;SHT30;58451;51.550;7.208;2022-11-20T16:49:06;4.79;76.38
70830;SHT30;58451;51.550;7.208;2022-11-20T16:50:45;4.75;76.37
70830;SHT30;58451;51.550;7.208;2022-11-20T16:52:23;4.71;76.50
70830;SHT30;58451;51.550;7.208;2022-11-20T16:53:55;4.71;76.43
70830;SHT30;58451;51.550;7.208;2022-11-20T16:55:27;4.71;76.38
70830;SHT30;58451;51.550;7.208;2022-11-20T16:56:59;4.72;76.35
70830;SHT30;58451;51.550;7.208;2022-11-20T16:58:31;4.72;76.30
70830;SHT30;58451;51.550;7.208;2022-11-20T17:00:03;4.73;76.27
70830;SHT30;58451;51.550;7.208;2022-11-20T17:01:36;4.74;76.40
70830;SHT30;58451;51.550;7.208;2022-11-20T17:03:10;4.77;76.70
70830;SHT30;58451;51.550;7.208;2022-11-20T17:04:44;4.79;76.83
70830;SHT30;58451;51.550;7.208;2022-11-20T17:06:17;4.82;76.83
70830;SHT30;58451;51.550;7.208;2022-11-20T17:07:52;4.85;77.05
70830;SHT30;58451;51.550;7.208;2022-11-20T17:09:24;4.85;77.17
70830;SHT30;58451;51.550;7.208;2022-11-20T17:10:56;4.84;77.20
70830;SHT30;58451;51.550;7.208;2022-11-20T17:12:39;4.82;77.20
70830;SHT30;58451;51.550;7.208;2022-11-20T17:14:11;4.78;77.17
70830;SHT30;58451;51.550;7.208;2022-11-20T17:15:46;4.74;77.15
70830;SHT30;58451;51.550;7.208;2022-11-20T17:17:18;4.72;77.20
70830;SHT30;58451;51.550;7.208;2022-11-20T17:18:50;4.70;77.25
70830;SHT30;58451;51.550;7.208;2022-11-20T17:20:35;4.70;77.20
70830;SHT30;58451;51.550;7.208;2022-11-20T17:22:07;4.69;77.25
70830;SHT30;58451;51.550;7.208;2022-11-20T17:23:39;4.68;77.25
70830;SHT30;58451;51.550;7.208;2022-11-20T17:25:14;4.66;77.37
70830;SHT30;58451;51.550;7.208;2022-11-20T17:26:47;4.64;77.40
70830;SHT30;58451;51.550;7.208;2022-11-20T17:28:19;4.61;77.50
70830;SHT30;58451;51.550;7.208;2022-11-20T17:29:51;4.59;77.67
70830;SHT30;58451;51.550;7.208;2022-11-20T17:31:26;4.56;77.75
70830;SHT30;58451;51.550;7.208;2022-11-20T17:33:00;4.54;77.77
70830;SHT30;58451;51.550;7.208;2022-11-20T17:34:32;4.55;77.82
70830;SHT30;58451;51.550;7.208;2022-11-20T17:36:05;4.56;77.93
70830;SHT30;58451;51.550;7.208;2022-11-20T17:37:39;4.57;77.98
70830;SHT30;58451;51.550;7.208;2022-11-20T17:39:12;4.59;78.07
70830;SHT30;58451;51.550;7.208;2022-11-20T17:40:46;4.63;78.38
70830;SHT30;58451;51.550;7.208;2022-11-20T17:42:18;4.64;78.65
70830;SHT30;58451;51.550;7.208;2022-11-20T17:44:08;4.65;79.42
70830;SHT30;58451;51.550;7.208;2022-11-20T17:45:42;4.65;79.23
70830;SHT30;58451;51.550;7.208;2022-11-20T17:47:15;4.66;79.35
70830;SHT30;58451;51.550;7.208;2022-11-20T17:48:47;4.70;79.50
70830;SHT30;58451;51.550;7.208;2022-11-20T17:50:20;4.70;79.53
70830;SHT30;58451;51.550;7.208;2022-11-20T17:51:52;4.72;79.42
70830;SHT30;58451;51.550;7.208;2022-11-20T17:53:24;4.72;79.42
70830;SHT30;58451;51.550;7.208;2022-11-20T17:54:56;4.74;79.35
70830;SHT30;58451;51.550;7.208;2022-11-20T17:56:31;4.74;79.32
70830;SHT30;58451;51.550;7.208;2022-11-20T17:58:26;4.78;79.28
70830;SHT30;58451;51.550;7.208;2022-11-20T17:59:59;4.82;79.65
70830;SHT30;58451;51.550;7.208;2022-11-20T18:01:31;4.83;79.82
70830;SHT30;58451;51.550;7.208;2022-11-20T18:03:07;4.84;79.68
70830;SHT30;58451;51.550;7.208;2022-11-20T18:04:39;4.88;79.82
70830;SHT30;58451;51.550;7.208;2022-11-20T18:06:12;4.90;79.87
70830;SHT30;58451;51.550;7.208;2022-11-20T18:07:53;4.93;79.83
70830;SHT30;58451;51.550;7.208;2022-11-20T18:09:26;4.94;79.80
70830;SHT30;58451;51.550;7.208;2022-11-20T18:10:58;4.94;79.70
70830;SHT30;58451;51.550;7.208;2022-11-20T18:12:30;4.95;79.67
70830;SHT30;58451;51.550;7.208;2022-11-20T18:14:03;4.96;79.58
70830;SHT30;58451;51.550;7.208;2022-11-20T18:16:04;4.94;79.48
70830;SHT30;58451;51.550;7.208;2022-11-20T18:17:38;4.94;79.50
70830;SHT30;58451;51.550;7.208;2022-11-20T18:19:11;4.95;79.45
70830;SHT30;58451;51.550;7.208;2022-11-20T18:20:51;4.92;79.43
70830;SHT30;58451;51.550;7.208;2022-11-20T18:22:24;4.90;79.45
70830;SHT30;58451;51.550;7.208;2022-11-20T18:23:56;4.91;79.65
70830;SHT30;58451;51.550;7.208;2022-11-20T18:25:29;4.91;79.90
70830;SHT30;58451;51.550;7.208;2022-11-20T18:27:01;4.88;79.93
70830;SHT30;58451;51.550;7.208;2022-11-20T18:28:36;4.87;79.98
70830;SHT30;58451;51.550;7.208;2022-11-20T18:30:09;4.88;79.92
70830;SHT30;58451;51.550;7.208;2022-11-20T18:31:42;4.87;79.82
70830;SHT30;58451;51.550;7.208;2022-11-20T18:33:14;4.86;79.80
70830;SHT30;58451;51.550;7.208;2022-11-20T18:34:46;4.87;79.78
70830;SHT30;58451;51.550;7.208;2022-11-20T18:36:19;4.86;79.72
70830;SHT30;58451;51.550;7.208;2022-11-20T18:37:54;4.85;79.72
70830;SHT30;58451;51.550;7.208;2022-11-20T18:39:26;4.86;79.78
70830;SHT30;58451;51.550;7.208;2022-11-20T18:40:58;4.83;80.38
70830;SHT30;58451;51.550;7.208;2022-11-20T18:42:35;4.83;80.37
70830;SHT30;58451;51.550;7.208;2022-11-20T18:44:29;4.81;80.13
70830;SHT30;58451;51.550;7.208;2022-11-20T18:46:21;4.79;80.12
70830;SHT30;58451;51.550;7.208;2022-11-20T18:47:53;4.79;80.10
70830;SHT30;58451;51.550;7.208;2022-11-20T18:49:24;4.80;80.17
70830;SHT30;58451;51.550;7.208;2022-11-20T18:51:06;4.81;80.27
70830;SHT30;58451;51.550;7.208;2022-11-20T18:52:42;4.81;80.22
70830;SHT30;58451;51.550;7.208;2022-11-20T18:54:18;4.80;80.30
70830;SHT30;58451;51.550;7.208;2022-11-20T18:55:49;4.78;80.32
70830;SHT30;58451;51.550;7.208;2022-11-20T18:57:23;4.76;80.32
70830;SHT30;58451;51.550;7.208;2022-11-20T18:58:58;4.76;80.45
70830;SHT30;58451;51.550;7.208;2022-11-20T19:00:32;4.74;80.55
70830;SHT30;58451;51.550;7.208;2022-11-20T19:02:03;4.75;80.53
70830;SHT30;58451;51.550;7.208;2022-11-20T19:03:35;4.75;80.53
70830;SHT30;58451;51.550;7.208;2022-11-20T19:05:07;4.76;80.52
70830;SHT30;58451;51.550;7.208;2022-11-20T19:06:45;4.76;80.47
70830;SHT30;58451;51.550;7.208;2022-11-20T19:08:20;4.76;80.50
70830;SHT30;58451;51.550;7.208;2022-11-20T19:09:52;4.78;80.58
70830;SHT30;58451;51.550;7.208;2022-11-20T19:11:24;4.78;80.65
70830;SHT30;58451;51.550;7.208;2022-11-20T19:12:55;4.78;80.80
70830;SHT30;58451;51.550;7.208;2022-11-20T19:14:28;4.76;80.88
70830;SHT30;58451;51.550;7.208;2022-11-20T19:16:01;4.77;80.80
70830;SHT30;58451;51.550;7.208;2022-11-20T19:17:41;4.78;80.77
70830;SHT30;58451;51.550;7.208;2022-11-20T19:19:13;4.80;80.90
70830;SHT30;58451;51.550;7.208;2022-11-20T19:20:46;4.82;80.97
70830;SHT30;58451;51.550;7.208;2022-11-20T19:22:18;4.85;80.97
70830;SHT30;58451;51.550;7.208;2022-11-20T19:23:51;4.84;80.88
70830;SHT30;58451;51.550;7.208;2022-11-20T19:25:29;4.87;80.90
70830;SHT30;58451;51.550;7.208;2022-11-20T19:27:08;4.89;80.90
70830;SHT30;58451;51.550;7.208;2022-11-20T19:28:40;4.90;80.95
70830;SHT30;58451;51.550;7.208;2022-11-20T19:30:12;4.93;80.93
70830;SHT30;58451;51.550;7.208;2022-11-20T19:31:44;4.95;80.92
70830;SHT30;58451;51.550;7.208;2022-11-20T19:33:16;4.97;81.05
70830;SHT30;58451;51.550;7.208;2022-11-20T19:34:48;4.99;81.13